sensor_id;sensor_type;location;lat;lon;timestamp;pressure;altitude;pressure_sealevel;temperature;humidity
4398;BME280;2213;49.720;7.296;2022-10-16T00:01:49;97900.06;;;13.95;100.00
4398;BME280;2213;49.720;7.296;2022-10-16T00:04:17;97900.44;;;13.92;100.00
4398;BME280;2213;49.720;7.296;2022-10-16T00:06:46;97904.94;;;13.91;100.00
4398;BME280;2213;49.720;7.296;2022-10-16T00:09:15;97901.47;;;13.91;100.00
4398;BME280;2213;49.720;7.296;2022-10-16T00:11:44;97905.13;;;13.90;100.00
4398;BME280;2213;49.720;7.296;2022-10-16T00:14:15;97900.28;;;13.87;100.00
4398;BME280;2213;49.720;7.296;2022-10-16T00:16:45;97904.75;;;13.86;100.00
4398;BME280;2213;49.720;7.296;2022-10-16T00:19:15;97898.47;;;13.87;100.00
4398;BME280;2213;49.720;7.296;2022-10-16T00:21:45;97906.94;;;13.89;100.00
4398;BME280;2213;49.720;7.296;2022-10-16T00:24:13;97892.19;;;13.88;100.00
4398;BME280;2213;49.720;7.296;2022-10-16T00:26:42;97906.13;;;13.89;100.00
4398;BME280;2213;49.720;7.296;2022-10-16T00:29:11;97907.94;;;13.88;100.00
4398;BME280;2213;49.720;7.296;2022-10-16T00:31:40;97899.28;;;13.88;100.00
4398;BME280;2213;49.720;7.296;2022-10-16T00:34:09;97893.00;;;13.89;100.00
4398;BME280;2213;49.720;7.296;2022-10-16T00:36:39;97886.91;;;13.88;100.00
4398;BME280;2213;49.720;7.296;2022-10-16T00:39:08;97894.03;;;13.88;100.00
4398;BME280;2213;49.720;7.296;2022-10-16T00:41:37;97896.84;;;13.86;100.00
4398;BME280;2213;49.720;7.296;2022-10-16T00:44:43;97899.47;;;13.86;100.00
4398;BME280;2213;49.720;7.296;2022-10-16T00:47:19;97895.03;;;13.87;100.00
4398;BME280;2213;49.720;7.296;2022-10-16T00:49:53;97899.72;;;13.85;100.00
4398;BME280;2213;49.720;7.296;2022-10-16T00:52:24;97910.22;;;13.85;100.00
4398;BME280;2213;49.720;7.296;2022-10-16T00:54:54;97911.81;;;13.86;100.00
4398;BME280;2213;49.720;7.296;2022-10-16T00:57:24;97911.81;;;13.86;100.00
4398;BME280;2213;49.720;7.296;2022-10-16T00:59:54;97918.88;;;13.85;100.00
4398;BME280;2213;49.720;7.296;2022-10-16T01:02:24;97917.06;;;13.86;100.00
4398;BME280;2213;49.720;7.296;2022-10-16T01:04:54;97919.69;;;13.86;100.00
4398;BME280;2213;49.720;7.296;2022-10-16T01:07:38;97914.44;;;13.86;100.00
4398;BME280;2213;49.720;7.296;2022-10-16T01:10:22;97911.81;;;13.86;100.00
4398;BME280;2213;49.720;7.296;2022-10-16T01:12:59;97920.75;;;13.85;100.00
4398;BME280;2213;49.720;7.296;2022-10-16T01:15:34;97930.81;;;13.88;100.00
4398;BME280;2213;49.720;7.296;2022-10-16T01:18:13;97930.81;;;13.88;100.00
4398;BME280;2213;49.720;7.296;2022-10-16T01:20:51;97929.78;;;13.89;100.00
4398;BME280;2213;49.720;7.296;2022-10-16T01:23:47;97939.50;;;13.88;100.00
4398;BME280;2213;49.720;7.296;2022-10-16T01:26:40;97947.38;;;13.88;100.00
4398;BME280;2213;49.720;7.296;2022-10-16T01:29:20;97930.59;;;13.89;100.00
4398;BME280;2213;49.720;7.296;2022-10-16T01:31:57;97948.19;;;13.89;100.00
4398;BME280;2213;49.720;7.296;2022-10-16T01:34:37;97946.59;;;13.88;100.00
4398;BME280;2213;49.720;7.296;2022-10-16T01:37:13;97946.59;;;13.88;100.00
4398;BME280;2213;49.720;7.296;2022-10-16T01:39:48;97963.97;;;13.89;100.00
4398;BME280;2213;49.720;7.296;2022-10-16T01:42:23;97965.00;;;13.88;100.00
4398;BME280;2213;49.720;7.296;2022-10-16T01:44:56;97958.72;;;13.89;100.00
4398;BME280;2213;49.720;7.296;2022-10-16T01:47:30;97951.03;;;13.87;100.00
4398;BME280;2213;49.720;7.296;2022-10-16T01:50:02;97958.72;;;13.89;100.00
4398;BME280;2213;49.720;7.296;2022-10-16T01:52:39;97960.31;;;13.90;100.00
4398;BME280;2213;49.720;7.296;2022-10-16T01:55:10;97951.44;;;13.91;100.00
4398;BME280;2213;49.720;7.296;2022-10-16T01:57:46;97952.25;;;13.91;100.00
4398;BME280;2213;49.720;7.296;2022-10-16T02:00:22;97940.69;;;13.92;100.00
4398;BME280;2213;49.720;7.296;2022-10-16T02:02:54;97937.47;;;13.90;100.00
4398;BME280;2213;49.720;7.296;2022-10-16T02:05:31;97943.31;;;13.92;100.00
4398;BME280;2213;49.720;7.296;2022-10-16T02:08:03;97947.75;;;13.92;100.00
4398;BME280;2213;49.720;7.296;2022-10-16T02:10:34;97943.13;;;13.94;100.00
4398;BME280;2213;49.720;7.296;2022-10-16T02:13:09;97955.47;;;13.93;100.00
4398;BME280;2213;49.720;7.296;2022-10-16T02:15:40;97958.91;;;13.94;100.00
4398;BME280;2213;49.720;7.296;2022-10-16T02:18:10;97963.94;;;13.95;100.00
4398;BME280;2213;49.720;7.296;2022-10-16T02:20:50;97958.28;;;13.98;100.00
4398;BME280;2213;49.720;7.296;2022-10-16T02:23:31;97960.91;;;13.98;100.00
4398;BME280;2213;49.720;7.296;2022-10-16T02:26:06;97957.22;;;13.99;100.00
4398;BME280;2213;49.720;7.296;2022-10-16T02:28:45;97957.03;;;14.01;100.00
4398;BME280;2213;49.720;7.296;2022-10-16T02:31:25;97968.13;;;14.03;100.00
4398;BME280;2213;49.720;7.296;2022-10-16T02:33:58;97965.31;;;14.04;100.00
4398;BME280;2213;49.720;7.296;2022-10-16T02:36:27;97965.50;;;14.03;100.00
4398;BME280;2213;49.720;7.296;2022-10-16T02:38:57;97966.31;;;14.03;100.00
4398;BME280;2213;49.720;7.296;2022-10-16T02:41:28;97965.50;;;14.03;100.00
4398;BME280;2213;49.720;7.296;2022-10-16T02:43:57;97953.78;;;14.05;100.00
4398;BME280;2213;49.720;7.296;2022-10-16T02:46:27;97947.28;;;14.08;100.00
4398;BME280;2213;49.720;7.296;2022-10-16T02:48:55;97954.16;;;14.09;100.00
4398;BME280;2213;49.720;7.296;2022-10-16T02:51:24;97943.66;;;14.09;100.00
4398;BME280;2213;49.720;7.296;2022-10-16T02:53:54;97956.56;;;14.10;100.00
4398;BME280;2213;49.720;7.296;2022-10-16T02:56:23;97960.81;;;14.11;100.00
4398;BME280;2213;49.720;7.296;2022-10-16T02:58:52;97974.78;;;14.12;100.00
4398;BME280;2213;49.720;7.296;2022-10-16T03:01:21;97973.75;;;14.13;100.00
4398;BME280;2213;49.720;7.296;2022-10-16T03:03:53;97967.47;;;14.14;100.00
4398;BME280;2213;49.720;7.296;2022-10-16T03:06:21;97962.00;;;14.16;100.00
4398;BME280;2213;49.720;7.296;2022-10-16T03:08:51;97970.69;;;14.16;100.00
4398;BME280;2213;49.720;7.296;2022-10-16T03:11:20;97976.56;;;14.18;100.00
4398;BME280;2213;49.720;7.296;2022-10-16T03:13:49;97973.94;;;14.18;100.00
4398;BME280;2213;49.720;7.296;2022-10-16T03:16:18;97974.94;;;14.17;100.00
4398;BME280;2213;49.720;7.296;2022-10-16T03:18:48;97987.88;;;14.19;100.00
4398;BME280;2213;49.720;7.296;2022-10-16T03:21:19;97971.88;;;14.20;100.00
4398;BME280;2213;49.720;7.296;2022-10-16T03:23:48;97971.88;;;14.20;100.00
4398;BME280;2213;49.720;7.296;2022-10-16T03:26:17;97973.50;;;14.21;100.00
4398;BME280;2213;49.720;7.296;2022-10-16T03:28:48;97977.94;;;14.21;100.00
4398;BME280;2213;49.720;7.296;2022-10-16T03:31:17;97975.13;;;14.22;100.00
4398;BME280;2213;49.720;7.296;2022-10-16T03:33:46;97980.38;;;14.22;100.00
4398;BME280;2213;49.720;7.296;2022-10-16T03:36:18;97981.19;;;14.23;100.00
4398;BME280;2213;49.720;7.296;2022-10-16T03:38:48;97971.44;;;14.23;100.00
4398;BME280;2213;49.720;7.296;2022-10-16T03:41:17;97977.53;;;14.24;100.00
4398;BME280;2213;49.720;7.296;2022-10-16T03:43:47;97968.63;;;14.25;100.00
4398;BME280;2213;49.720;7.296;2022-10-16T03:46:16;97969.44;;;14.25;100.00
4398;BME280;2213;49.720;7.296;2022-10-16T03:48:46;97968.63;;;14.25;100.00
4398;BME280;2213;49.720;7.296;2022-10-16T03:51:14;97970.69;;;14.23;100.00
4398;BME280;2213;49.720;7.296;2022-10-16T03:53:45;97973.06;;;14.24;100.00
4398;BME280;2213;49.720;7.296;2022-10-16T03:56:13;97981.59;;;14.26;100.00
4398;BME280;2213;49.720;7.296;2022-10-16T03:58:42;97972.06;;;14.25;100.00
4398;BME280;2213;49.720;7.296;2022-10-16T04:01:11;97972.66;;;14.27;100.00
4398;BME280;2213;49.720;7.296;2022-10-16T04:03:40;97967.38;;;14.27;100.00
4398;BME280;2213;49.720;7.296;2022-10-16T04:06:09;97967.38;;;14.27;100.00
4398;BME280;2213;49.720;7.296;2022-10-16T04:08:38;97976.31;;;14.26;100.00
4398;BME280;2213;49.720;7.296;2022-10-16T04:11:08;97981.59;;;14.26;100.00
4398;BME280;2213;49.720;7.296;2022-10-16T04:13:37;97977.91;;;14.27;100.00
4398;BME280;2213;49.720;7.296;2022-10-16T04:16:06;97979.53;;;14.28;100.00
4398;BME280;2213;49.720;7.296;2022-10-16T04:18:35;97982.34;;;14.27;100.00
4398;BME280;2213;49.720;7.296;2022-10-16T04:21:05;97997.13;;;14.28;100.00
4398;BME280;2213;49.720;7.296;2022-10-16T04:23:35;97999.56;;;14.29;100.00
4398;BME280;2213;49.720;7.296;2022-10-16T04:26:03;97998.53;;;14.30;100.00
4398;BME280;2213;49.720;7.296;2022-10-16T04:28:34;97994.88;;;14.31;100.00
4398;BME280;2213;49.720;7.296;2022-10-16T04:31:04;97996.50;;;14.32;100.00
4398;BME280;2213;49.720;7.296;2022-10-16T04:33:33;97998.13;;;14.33;100.00
4398;BME280;2213;49.720;7.296;2022-10-16T04:36:04;97997.13;;;14.34;100.00
4398;BME280;2213;49.720;7.296;2022-10-16T04:38:33;97985.59;;;14.35;100.00
4398;BME280;2213;49.720;7.296;2022-10-16T04:41:02;97990.84;;;14.35;100.00
4398;BME280;2213;49.720;7.296;2022-10-16T04:43:34;97995.31;;;14.35;100.00
4398;BME280;2213;49.720;7.296;2022-10-16T04:46:04;97997.72;;;14.36;100.00
4398;BME280;2213;49.720;7.296;2022-10-16T04:48:35;97992.47;;;14.36;100.00
4398;BME280;2213;49.720;7.296;2022-10-16T04:51:05;98007.03;;;14.39;100.00
4398;BME280;2213;49.720;7.296;2022-10-16T04:53:34;98005.41;;;14.38;100.00
4398;BME280;2213;49.720;7.296;2022-10-16T04:56:02;98010.47;;;14.39;100.00
4398;BME280;2213;49.720;7.296;2022-10-16T04:58:36;98017.75;;;14.37;100.00
4398;BME280;2213;49.720;7.296;2022-10-16T05:01:07;98017.75;;;14.37;100.00
4398;BME280;2213;49.720;7.296;2022-10-16T05:03:38;98015.91;;;14.38;100.00
4398;BME280;2213;49.720;7.296;2022-10-16T05:06:07;98014.09;;;14.38;100.00
4398;BME280;2213;49.720;7.296;2022-10-16T05:08:37;98019.38;;;14.38;100.00
4398;BME280;2213;49.720;7.296;2022-10-16T05:11:06;98031.50;;;14.39;100.00
4398;BME280;2213;49.720;7.296;2022-10-16T05:13:37;98038.38;;;14.40;100.00
4398;BME280;2213;49.720;7.296;2022-10-16T05:16:06;98031.50;;;14.39;100.00
4398;BME280;2213;49.720;7.296;2022-10-16T05:18:34;98034.13;;;14.39;100.00
4398;BME280;2213;49.720;7.296;2022-10-16T05:21:03;98037.34;;;14.41;100.00
4398;BME280;2213;49.720;7.296;2022-10-16T05:23:36;98030.28;;;14.42;100.00
4398;BME280;2213;49.720;7.296;2022-10-16T05:26:05;98032.91;;;14.42;100.00
4398;BME280;2213;49.720;7.296;2022-10-16T05:28:37;98028.44;;;14.42;100.00
4398;BME280;2213;49.720;7.296;2022-10-16T05:31:07;98030.06;;;14.43;100.00
4398;BME280;2213;49.720;7.296;2022-10-16T05:33:37;98027.44;;;14.43;100.00
4398;BME280;2213;49.720;7.296;2022-10-16T05:36:08;98030.06;;;14.43;100.00
4398;BME280;2213;49.720;7.296;2022-10-16T05:38:37;98024.59;;;14.45;100.00
4398;BME280;2213;49.720;7.296;2022-10-16T05:41:06;98034.28;;;14.44;100.00
4398;BME280;2213;49.720;7.296;2022-10-16T05:43:36;98031.66;;;14.44;100.00
4398;BME280;2213;49.720;7.296;2022-10-16T05:46:06;98027.22;;;14.45;100.00
4398;BME280;2213;49.720;7.296;2022-10-16T05:48:35;98024.59;;;14.45;100.00
4398;BME280;2213;49.720;7.296;2022-10-16T05:51:08;98031.66;;;14.44;100.00
4398;BME280;2213;49.720;7.296;2022-10-16T05:53:41;98031.09;;;14.42;100.00
4398;BME280;2213;49.720;7.296;2022-10-16T05:56:12;98044.81;;;14.44;100.00
4398;BME280;2213;49.720;7.296;2022-10-16T05:58:44;98034.53;;;14.43;100.00
4398;BME280;2213;49.720;7.296;2022-10-16T06:01:16;98045.84;;;14.43;100.00
4398;BME280;2213;49.720;7.296;2022-10-16T06:03:45;98048.25;;;14.45;100.00
4398;BME280;2213;49.720;7.296;2022-10-16T06:06:16;98050.91;;;14.45;100.00
4398;BME280;2213;49.720;7.296;2022-10-16T06:08:46;98057.97;;;14.44;100.00
4398;BME280;2213;49.720;7.296;2022-10-16T06:11:18;98056.16;;;14.45;100.00
4398;BME280;2213;49.720;7.296;2022-10-16T06:13:52;98059.59;;;14.45;100.00
4398;BME280;2213;49.720;7.296;2022-10-16T06:16:22;98064.66;;;14.47;100.00
4398;BME280;2213;49.720;7.296;2022-10-16T06:18:52;98062.63;;;14.49;100.00
4398;BME280;2213;49.720;7.296;2022-10-16T06:21:25;98062.63;;;14.49;100.00
4398;BME280;2213;49.720;7.296;2022-10-16T06:23:54;98059.97;;;14.49;100.00
4398;BME280;2213;49.720;7.296;2022-10-16T06:26:29;98068.69;;;14.49;100.00
4398;BME280;2213;49.720;7.296;2022-10-16T06:29:01;98070.31;;;14.50;100.00
4398;BME280;2213;49.720;7.296;2022-10-16T06:31:30;98075.34;;;14.52;100.00
4398;BME280;2213;49.720;7.296;2022-10-16T06:34:01;98072.94;;;14.50;100.00
4398;BME280;2213;49.720;7.296;2022-10-16T06:36:42;98065.63;;;14.52;100.00
4398;BME280;2213;49.720;7.296;2022-10-16T06:39:13;98074.53;;;14.51;100.00
4398;BME280;2213;49.720;7.296;2022-10-16T06:41:42;98074.53;;;14.51;100.00
4398;BME280;2213;49.720;7.296;2022-10-16T06:44:13;98088.31;;;14.53;100.00
4398;BME280;2213;49.720;7.296;2022-10-16T06:46:42;98086.50;;;14.54;100.00
4398;BME280;2213;49.720;7.296;2022-10-16T06:49:11;98089.13;;;14.54;100.00
4398;BME280;2213;49.720;7.296;2022-10-16T06:51:39;98095.78;;;14.56;100.00
4398;BME280;2213;49.720;7.296;2022-10-16T06:54:09;98098.41;;;14.56;100.00
4398;BME280;2213;49.720;7.296;2022-10-16T06:56:38;98103.66;;;14.56;100.00
4398;BME280;2213;49.720;7.296;2022-10-16T06:59:07;98105.28;;;14.57;100.00
4398;BME280;2213;49.720;7.296;2022-10-16T07:01:37;98099.00;;;14.58;100.00
4398;BME280;2213;49.720;7.296;2022-10-16T07:04:06;98109.53;;;14.58;100.00
4398;BME280;2213;49.720;7.296;2022-10-16T07:06:36;98117.00;;;14.61;100.00
4398;BME280;2213;49.720;7.296;2022-10-16T07:09:08;98115.41;;;14.60;100.00
4398;BME280;2213;49.720;7.296;2022-10-16T07:11:41;98117.81;;;14.62;100.00
4398;BME280;2213;49.720;7.296;2022-10-16T07:14:17;98128.13;;;14.64;100.00
4398;BME280;2213;49.720;7.296;2022-10-16T07:16:48;98128.94;;;14.64;100.00
4398;BME280;2213;49.720;7.296;2022-10-16T07:19:16;98140.06;;;14.66;100.00
4398;BME280;2213;49.720;7.296;2022-10-16T07:21:45;98135.59;;;14.67;100.00
4398;BME280;2213;49.720;7.296;2022-10-16T07:24:15;98144.91;;;14.69;100.00
4398;BME280;2213;49.720;7.296;2022-10-16T07:26:45;98149.34;;;14.69;100.00
4398;BME280;2213;49.720;7.296;2022-10-16T07:29:17;98159.44;;;14.72;100.00
4398;BME280;2213;49.720;7.296;2022-10-16T07:31:49;98162.69;;;14.74;100.00
4398;BME280;2213;49.720;7.296;2022-10-16T07:34:19;98171.41;;;14.74;100.00
4398;BME280;2213;49.720;7.296;2022-10-16T07:36:49;98162.28;;;14.77;100.00
4398;BME280;2213;49.720;7.296;2022-10-16T07:39:18;98173.63;;;14.77;100.00
4398;BME280;2213;49.720;7.296;2022-10-16T07:41:47;98171.81;;;14.78;100.00
4398;BME280;2213;49.720;7.296;2022-10-16T07:44:16;98181.28;;;14.79;100.00
4398;BME280;2213;49.720;7.296;2022-10-16T07:46:44;98185.53;;;14.80;100.00
4398;BME280;2213;49.720;7.296;2022-10-16T07:49:16;98195.06;;;14.81;100.00
4398;BME280;2213;49.720;7.296;2022-10-16T07:51:45;98196.69;;;14.82;100.00
4398;BME280;2213;49.720;7.296;2022-10-16T07:54:14;98207.22;;;14.82;100.00
4398;BME280;2213;49.720;7.296;2022-10-16T07:56:43;98210.88;;;14.81;100.00
4398;BME280;2213;49.720;7.296;2022-10-16T07:59:12;98212.25;;;14.83;100.00
4398;BME280;2213;49.720;7.296;2022-10-16T08:01:41;98206.81;;;14.85;100.00
4398;BME280;2213;49.720;7.296;2022-10-16T08:04:11;98210.03;;;14.87;100.00
4398;BME280;2213;49.720;7.296;2022-10-16T08:06:41;98220.94;;;14.90;100.00
4398;BME280;2213;49.720;7.296;2022-10-16T08:09:10;98224.38;;;14.91;100.00
4398;BME280;2213;49.720;7.296;2022-10-16T08:11:39;98226.00;;;14.92;100.00
4398;BME280;2213;49.720;7.296;2022-10-16T08:14:07;98225.78;;;14.93;100.00
4398;BME280;2213;49.720;7.296;2022-10-16T08:16:38;98232.47;;;14.96;100.00
4398;BME280;2213;49.720;7.296;2022-10-16T08:19:07;98237.53;;;14.97;100.00
4398;BME280;2213;49.720;7.296;2022-10-16T08:21:36;98239.97;;;14.99;100.00
4398;BME280;2213;49.720;7.296;2022-10-16T08:24:07;98248.44;;;15.01;100.00
4398;BME280;2213;49.720;7.296;2022-10-16T08:26:36;98249.03;;;15.03;100.00
4398;BME280;2213;49.720;7.296;2022-10-16T08:29:05;98262.19;;;15.03;100.00
4398;BME280;2213;49.720;7.296;2022-10-16T08:31:34;98254.28;;;15.03;100.00
4398;BME280;2213;49.720;7.296;2022-10-16T08:34:03;98259.16;;;15.06;100.00
4398;BME280;2213;49.720;7.296;2022-10-16T08:36:31;98252.88;;;15.07;100.00
4398;BME280;2213;49.720;7.296;2022-10-16T08:39:01;98252.88;;;15.07;100.00
4398;BME280;2213;49.720;7.296;2022-10-16T08:45:13;98268.44;;;15.15;100.00
4398;BME280;2213;49.720;7.296;2022-10-16T08:48:03;98273.50;;;15.17;100.00
4398;BME280;2213;49.720;7.296;2022-10-16T08:50:39;98269.63;;;15.19;100.00
4398;BME280;2213;49.720;7.296;2022-10-16T08:53:23;98279.56;;;15.24;100.00
4398;BME280;2213;49.720;7.296;2022-10-16T08:55:54;98278.31;;;15.26;100.00
4398;BME280;2213;49.720;7.296;2022-10-16T08:58:29;98265.72;;;15.28;100.00
4398;BME280;2213;49.720;7.296;2022-10-16T09:01:01;98262.66;;;15.31;100.00
4398;BME280;2213;49.720;7.296;2022-10-16T09:06:56;98265.63;;;15.41;100.00
4398;BME280;2213;49.720;7.296;2022-10-16T09:09:49;98269.28;;;15.47;100.00
4398;BME280;2213;49.720;7.296;2022-10-16T09:12:30;98280.81;;;15.52;100.00
4398;BME280;2213;49.720;7.296;2022-10-16T09:15:19;98280.19;;;15.57;100.00
4398;BME280;2213;49.720;7.296;2022-10-16T09:18:02;98280.94;;;15.64;100.00
4398;BME280;2213;49.720;7.296;2022-10-16T09:20:49;98279.28;;;15.70;100.00
4398;BME280;2213;49.720;7.296;2022-10-16T09:23:27;98291.84;;;15.74;100.00
4398;BME280;2213;49.720;7.296;2022-10-16T09:25:59;98298.06;;;15.80;100.00
4398;BME280;2213;49.720;7.296;2022-10-16T09:28:28;98301.91;;;15.84;100.00
4398;BME280;2213;49.720;7.296;2022-10-16T09:30:59;98301.47;;;15.87;100.00
4398;BME280;2213;49.720;7.296;2022-10-16T09:33:33;98304.28;;;15.92;100.00
4398;BME280;2213;49.720;7.296;2022-10-16T09:36:05;98301.78;;;15.97;100.00
4398;BME280;2213;49.720;7.296;2022-10-16T09:38:36;98308.63;;;16.04;100.00
4398;BME280;2213;49.720;7.296;2022-10-16T09:41:17;98300.09;;;16.09;100.00
4398;BME280;2213;49.720;7.296;2022-10-16T09:43:53;98299.22;;;16.15;100.00
4398;BME280;2213;49.720;7.296;2022-10-16T09:46:29;98298.34;;;16.21;100.00
4398;BME280;2213;49.720;7.296;2022-10-16T09:49:01;98294.25;;;16.25;100.00
4398;BME280;2213;49.720;7.296;2022-10-16T09:51:33;98296.25;;;16.30;100.00
4398;BME280;2213;49.720;7.296;2022-10-16T09:54:20;98289.28;;;16.35;100.00
4398;BME280;2213;49.720;7.296;2022-10-16T09:56:52;98299.00;;;16.41;100.00
4398;BME280;2213;49.720;7.296;2022-10-16T09:59:22;98297.31;;;16.47;100.00
4398;BME280;2213;49.720;7.296;2022-10-16T10:02:01;98301.94;;;16.51;100.00
4398;BME280;2213;49.720;7.296;2022-10-16T10:04:41;98304.13;;;16.54;100.00
4398;BME280;2213;49.720;7.296;2022-10-16T10:07:23;98294.19;;;16.56;100.00
4398;BME280;2213;49.720;7.296;2022-10-16T10:09:55;98302.03;;;16.63;100.00
4398;BME280;2213;49.720;7.296;2022-10-16T10:12:27;98298.31;;;16.71;100.00
4398;BME280;2213;49.720;7.296;2022-10-16T10:15:04;98307.97;;;16.77;100.00
4398;BME280;2213;49.720;7.296;2022-10-16T10:17:47;98309.78;;;16.83;100.00
4398;BME280;2213;49.720;7.296;2022-10-16T10:20:27;98316.44;;;16.85;100.00
4398;BME280;2213;49.720;7.296;2022-10-16T10:23:01;98307.63;;;16.91;100.00
4398;BME280;2213;49.720;7.296;2022-10-16T10:25:54;98304.31;;;16.96;100.00
4398;BME280;2213;49.720;7.296;2022-10-16T10:28:56;98310.56;;;17.01;100.00
4398;BME280;2213;49.720;7.296;2022-10-16T10:31:41;98295.31;;;17.03;100.00
4398;BME280;2213;49.720;7.296;2022-10-16T10:34:46;98293.47;;;17.04;100.00
4398;BME280;2213;49.720;7.296;2022-10-16T10:37:44;98292.22;;;17.06;100.00
4398;BME280;2213;49.720;7.296;2022-10-16T10:40:40;98294.63;;;17.08;100.00
4398;BME280;2213;49.720;7.296;2022-10-16T10:43:34;98296.25;;;17.09;100.00
4398;BME280;2213;49.720;7.296;2022-10-16T10:46:17;98297.03;;;17.09;100.00
4398;BME280;2213;49.720;7.296;2022-10-16T10:49:12;98298.66;;;17.10;100.00
4398;BME280;2213;49.720;7.296;2022-10-16T10:51:58;98305.34;;;17.13;100.00
4398;BME280;2213;49.720;7.296;2022-10-16T10:54:36;98290.88;;;17.16;100.00
4398;BME280;2213;49.720;7.296;2022-10-16T10:57:20;98295.50;;;17.20;100.00
4398;BME280;2213;49.720;7.296;2022-10-16T11:00:13;98288.38;;;17.21;100.00
4398;BME280;2213;49.720;7.296;2022-10-16T11:02:55;98294.59;;;17.26;100.00
4398;BME280;2213;49.720;7.296;2022-10-16T11:05:40;98292.75;;;17.27;100.00
4398;BME280;2213;49.720;7.296;2022-10-16T11:08:18;98291.50;;;17.29;100.00
4398;BME280;2213;49.720;7.296;2022-10-16T11:10:54;98292.31;;;17.30;100.00
4398;BME280;2213;49.720;7.296;2022-10-16T11:13:33;98296.56;;;17.31;100.00
4398;BME280;2213;49.720;7.296;2022-10-16T11:16:14;98296.22;;;17.27;100.00
4398;BME280;2213;49.720;7.296;2022-10-16T11:18:56;98302.22;;;17.34;100.00
4398;BME280;2213;49.720;7.296;2022-10-16T11:21:41;98299.13;;;17.37;100.00
4398;BME280;2213;49.720;7.296;2022-10-16T11:24:26;98302.13;;;17.41;100.00
4398;BME280;2213;49.720;7.296;2022-10-16T11:27:08;98301.31;;;17.40;100.00
4398;BME280;2213;49.720;7.296;2022-10-16T11:29:48;98297.66;;;17.41;100.00
4398;BME280;2213;49.720;7.296;2022-10-16T11:32:26;98293.28;;;17.47;100.00
4398;BME280;2213;49.720;7.296;2022-10-16T11:35:06;98291.47;;;17.47;100.00
4398;BME280;2213;49.720;7.296;2022-10-16T11:37:44;98285.16;;;17.48;100.00
4398;BME280;2213;49.720;7.296;2022-10-16T11:40:26;98290.34;;;17.55;100.00
4398;BME280;2213;49.720;7.296;2022-10-16T11:43:14;98293.13;;;17.60;100.00
4398;BME280;2213;49.720;7.296;2022-10-16T11:45:51;98296.72;;;17.66;100.00
4398;BME280;2213;49.720;7.296;2022-10-16T11:48:30;98295.81;;;17.72;100.00
4398;BME280;2213;49.720;7.296;2022-10-16T11:51:11;98290.06;;;17.75;100.00
4398;BME280;2213;49.720;7.296;2022-10-16T11:53:55;98296.75;;;17.77;100.00
4398;BME280;2213;49.720;7.296;2022-10-16T11:56:42;98298.59;;;17.77;100.00
4398;BME280;2213;49.720;7.296;2022-10-16T11:59:23;98296.53;;;17.79;100.00
4398;BME280;2213;49.720;7.296;2022-10-16T12:02:16;98290.78;;;17.82;100.00
4398;BME280;2213;49.720;7.296;2022-10-16T12:05:09;98286.88;;;17.84;100.00
4398;BME280;2213;49.720;7.296;2022-10-16T12:07:54;98286.66;;;17.86;100.00
4398;BME280;2213;49.720;7.296;2022-10-16T12:10:30;98277.69;;;17.87;100.00
4398;BME280;2213;49.720;7.296;2022-10-16T12:13:30;98270.91;;;17.91;100.00
4398;BME280;2213;49.720;7.296;2022-10-16T12:16:22;98274.94;;;17.93;100.00
4398;BME280;2213;49.720;7.296;2022-10-16T12:19:12;98268.16;;;17.97;100.00
4398;BME280;2213;49.720;7.296;2022-10-16T12:21:42;98268.50;;;18.01;100.00
4398;BME280;2213;49.720;7.296;2022-10-16T12:24:35;98274.16;;;18.04;100.00
4398;BME280;2213;49.720;7.296;2022-10-16T12:27:22;98274.94;;;18.05;100.00
4398;BME280;2213;49.720;7.296;2022-10-16T12:30:23;98276.09;;;18.09;100.00
4398;BME280;2213;49.720;7.296;2022-10-16T12:32:59;98278.53;;;18.10;100.00
4398;BME280;2213;49.720;7.296;2022-10-16T12:35:33;98276.09;;;18.09;100.00
4398;BME280;2213;49.720;7.296;2022-10-16T12:38:11;98274.50;;;18.08;100.00
4398;BME280;2213;49.720;7.296;2022-10-16T12:40:55;98272.88;;;18.07;100.00
4398;BME280;2213;49.720;7.296;2022-10-16T12:43:36;98276.34;;;18.07;100.00
4398;BME280;2213;49.720;7.296;2022-10-16T12:46:37;98285.88;;;18.08;100.00
4398;BME280;2213;49.720;7.296;2022-10-16T12:49:22;98287.13;;;18.06;100.00
4398;BME280;2213;49.720;7.296;2022-10-16T12:51:58;98297.72;;;18.06;100.00
4398;BME280;2213;49.720;7.296;2022-10-16T12:54:34;98280.81;;;18.07;100.00
4398;BME280;2213;49.720;7.296;2022-10-16T12:57:23;98270.44;;;18.05;100.00
4398;BME280;2213;49.720;7.296;2022-10-16T13:00:06;98279.66;;;18.03;100.00
4398;BME280;2213;49.720;7.296;2022-10-16T13:03:16;98296.56;;;18.02;100.00
4398;BME280;2213;49.720;7.296;2022-10-16T13:06:25;98289.69;;;18.01;100.00
4398;BME280;2213;49.720;7.296;2022-10-16T13:09:35;98293.91;;;18.02;100.00
4398;BME280;2213;49.720;7.296;2022-10-16T13:12:23;98296.56;;;18.02;100.00
4398;BME280;2213;49.720;7.296;2022-10-16T13:15:27;98294.50;;;18.04;100.00
4398;BME280;2213;49.720;7.296;2022-10-16T13:18:12;98298.53;;;18.06;100.00
4398;BME280;2213;49.720;7.296;2022-10-16T13:21:12;98292.22;;;18.07;100.00
4398;BME280;2213;49.720;7.296;2022-10-16T13:23:56;98291.41;;;18.07;100.00
4398;BME280;2213;49.720;7.296;2022-10-16T13:26:41;98286.69;;;18.09;100.00
4398;BME280;2213;49.720;7.296;2022-10-16T13:29:13;98289.09;;;18.10;100.00
4398;BME280;2213;49.720;7.296;2022-10-16T13:31:44;98297.63;;;18.13;100.00
4398;BME280;2213;49.720;7.296;2022-10-16T13:34:22;98285.19;;;18.13;100.00
4398;BME280;2213;49.720;7.296;2022-10-16T13:36:53;98278.88;;;18.14;100.00
4398;BME280;2213;49.720;7.296;2022-10-16T13:39:27;98285.78;;;18.15;100.00
4398;BME280;2213;49.720;7.296;2022-10-16T13:42:22;98296.94;;;18.17;100.00
4398;BME280;2213;49.720;7.296;2022-10-16T13:44:56;98289.00;;;18.17;100.00
4398;BME280;2213;49.720;7.296;2022-10-16T13:47:47;98289.00;;;18.17;100.00
4398;BME280;2213;49.720;7.296;2022-10-16T13:50:32;98294.28;;;18.17;100.00
4398;BME280;2213;49.720;7.296;2022-10-16T13:53:05;98293.25;;;18.18;100.00
4398;BME280;2213;49.720;7.296;2022-10-16T13:55:35;98292.81;;;18.21;100.00
4398;BME280;2213;49.720;7.296;2022-10-16T13:58:14;98294.41;;;18.22;100.00
4398;BME280;2213;49.720;7.296;2022-10-16T14:00:55;98297.84;;;18.23;100.00